Aviation Digital Data Service (ADDS)

Output produced by METARs form (1715 UTC 24 February 2017)
found at http://aviationweather.gov/adds/metars/
 
KROC 241507Z 2415/2512 16004KT 3SM -RA OVC010 
     FM241700 15008KT P6SM SCT040 BKN150 
     FM250700 18013G19KT P6SM BKN200